createdAt,value
2024-02-22T00:00:14.233Z,6.90
2024-02-22T00:03:01.293Z,7.28
2024-02-22T00:05:28.281Z,7.15
2024-02-22T00:07:55.476Z,7.57
2024-02-22T00:10:22.567Z,6.90
2024-02-22T00:12:49.709Z,7.25
2024-02-22T00:15:16.593Z,5.82
2024-02-22T00:17:44.058Z,6.07
2024-02-22T00:20:11.651Z,6.35
2024-02-22T00:22:38.870Z,5.70
2024-02-22T00:25:06.339Z,5.43
2024-02-22T00:27:34.943Z,6.05
2024-02-22T00:30:01.906Z,6.72
2024-02-22T00:32:29.245Z,6.75
2024-02-22T00:34:56.199Z,7.35
2024-02-22T00:37:23.490Z,7.38
2024-02-22T00:39:50.389Z,8.38
2024-02-22T00:42:17.526Z,8.07
2024-02-22T00:44:44.380Z,10.02
2024-02-22T00:47:11.830Z,9.13
2024-02-22T00:49:38.986Z,8.85
2024-02-22T00:52:09.087Z,9.32
2024-02-22T00:54:36.271Z,9.85
2024-02-22T00:57:03.404Z,8.85
2024-02-22T00:59:33.523Z,8.18
2024-02-22T01:02:01.289Z,9.23
2024-02-22T01:04:28.471Z,9.40
2024-02-22T01:06:57.228Z,9.10
2024-02-22T01:09:24.085Z,8.07
2024-02-22T01:11:51.369Z,7.63
2024-02-22T01:14:20.999Z,7.70
2024-02-22T01:16:51.091Z,8.63
2024-02-22T01:19:18.557Z,8.25
2024-02-22T01:21:45.840Z,8.38
2024-02-22T01:24:12.740Z,8.20
2024-02-22T01:26:39.849Z,8.30
2024-02-22T01:29:06.715Z,8.40
2024-02-22T01:31:34.049Z,8.15
2024-02-22T01:34:01.066Z,7.72
2024-02-22T01:36:28.226Z,8.43
2024-02-22T01:38:55.037Z,8.40
2024-02-22T01:41:23.548Z,7.38
2024-02-22T01:43:51.487Z,7.05
2024-02-22T01:46:18.933Z,7.32
2024-02-22T01:48:45.928Z,6.68
2024-02-22T01:51:13.126Z,7.40
2024-02-22T01:53:39.985Z,6.75
2024-02-22T01:56:07.455Z,7.05
2024-02-22T01:58:36.141Z,7.45
2024-02-22T02:01:04.815Z,6.68
2024-02-22T02:03:31.845Z,7.57
2024-02-22T02:05:59.040Z,6.28
2024-02-22T02:08:25.886Z,5.63
2024-02-22T02:10:53.162Z,6.80
2024-02-22T02:13:19.981Z,7.43
2024-02-22T02:15:47.125Z,6.80
2024-02-22T02:18:14.130Z,6.07
2024-02-22T02:20:53.416Z,6.57
2024-02-22T02:23:28.696Z,5.90
2024-02-22T02:25:56.035Z,6.05
2024-02-22T02:28:22.925Z,6.32
2024-02-22T02:30:50.091Z,6.40
2024-02-22T02:33:17.080Z,5.95
2024-02-22T02:35:44.601Z,6.38
2024-02-22T02:38:11.870Z,6.22
2024-02-22T02:40:39.177Z,6.32
2024-02-22T02:43:06.615Z,6.70
2024-02-22T02:45:34.288Z,6.32
2024-02-22T02:48:01.199Z,6.13
2024-02-22T02:50:28.422Z,7.20
2024-02-22T02:52:55.294Z,6.20
2024-02-22T02:55:22.470Z,5.75
2024-02-22T02:57:51.124Z,5.82
2024-02-22T03:00:18.515Z,6.50
2024-02-22T03:02:45.305Z,5.38
2024-02-22T03:05:12.692Z,5.68
2024-02-22T03:07:39.693Z,5.45
2024-02-22T03:10:07.228Z,5.80
2024-02-22T03:12:34.283Z,5.47
2024-02-22T03:15:04.085Z,5.07
2024-02-22T03:17:30.902Z,5.25
2024-02-22T03:19:58.274Z,5.22
2024-02-22T03:22:25.267Z,5.50
2024-02-22T03:24:52.507Z,6.30
2024-02-22T03:27:19.374Z,6.57
2024-02-22T03:29:47.737Z,6.78
2024-02-22T03:32:15.474Z,7.20
2024-02-22T03:34:43.251Z,7.22
2024-02-22T03:37:10.857Z,8.13
2024-02-22T03:39:39.184Z,8.75
2024-02-22T03:42:06.019Z,8.20
2024-02-22T03:44:33.121Z,8.27
2024-02-22T03:46:59.932Z,8.45
2024-02-22T03:49:27.024Z,8.05
2024-02-22T03:51:53.930Z,7.80
2024-02-22T03:54:21.027Z,7.80
2024-02-22T03:56:47.861Z,7.78
2024-02-22T03:59:15.148Z,7.53
2024-02-22T04:01:42.152Z,7.80
2024-02-22T04:04:09.508Z,7.35
2024-02-22T04:06:39.810Z,6.85
2024-02-22T04:09:08.194Z,7.55
2024-02-22T04:11:35.216Z,7.03
2024-02-22T04:14:02.490Z,6.93
2024-02-22T04:16:29.348Z,7.28
2024-02-22T04:18:56.677Z,7.32
2024-02-22T04:21:23.624Z,7.00
2024-02-22T04:23:50.754Z,7.57
2024-02-22T04:26:17.644Z,6.78
2024-02-22T04:28:44.897Z,6.15
2024-02-22T04:31:12.026Z,6.78
2024-02-22T04:33:39.129Z,5.93
2024-02-22T04:36:07.251Z,5.53
2024-02-22T04:38:34.650Z,5.78
2024-02-22T04:41:01.677Z,6.05
2024-02-22T04:43:28.795Z,6.13
2024-02-22T04:45:56.275Z,5.93
2024-02-22T04:48:23.560Z,6.57
2024-02-22T04:50:50.438Z,6.10
2024-02-22T04:53:17.817Z,6.00
2024-02-22T04:55:44.716Z,6.43
2024-02-22T04:58:12.139Z,6.20
2024-02-22T05:00:40.207Z,5.72
2024-02-22T05:03:07.313Z,6.53
2024-02-22T05:05:34.318Z,6.63
2024-02-22T05:08:02.682Z,7.55
2024-02-22T05:10:31.211Z,7.07
2024-02-22T05:12:58.547Z,6.47
2024-02-22T05:15:25.317Z,5.85
2024-02-22T05:17:52.517Z,7.15
2024-02-22T05:20:19.402Z,6.43
2024-02-22T05:22:46.822Z,7.20
2024-02-22T05:25:13.657Z,6.80
2024-02-22T05:27:41.286Z,6.32
2024-02-22T05:30:08.741Z,6.75
2024-02-22T05:32:35.909Z,7.25
2024-02-22T05:35:02.865Z,6.78
2024-02-22T05:37:31.598Z,7.20
2024-02-22T05:40:00.154Z,6.63
2024-02-22T05:42:27.387Z,6.53
2024-02-22T05:44:54.243Z,6.65
2024-02-22T05:47:21.481Z,6.55
2024-02-22T05:49:49.232Z,6.93
2024-02-22T05:52:16.410Z,7.00
2024-02-22T05:54:43.205Z,7.45
2024-02-22T05:57:12.616Z,7.30
2024-02-22T05:59:40.379Z,7.20
2024-02-22T06:02:07.533Z,7.25
2024-02-22T06:04:34.530Z,7.20
2024-02-22T06:07:01.782Z,7.57
2024-02-22T06:09:28.649Z,9.98
2024-02-22T06:11:55.886Z,7.63
2024-02-22T06:14:22.847Z,7.35
2024-02-22T06:16:50.578Z,8.23
2024-02-22T06:19:17.533Z,9.02
2024-02-22T06:21:44.782Z,10.07
2024-02-22T06:24:11.619Z,10.88
2024-02-22T06:26:39.210Z,10.40
2024-02-22T06:29:06.186Z,9.95
2024-02-22T06:31:33.571Z,11.10
2024-02-22T06:34:01.781Z,11.45
2024-02-22T06:36:29.529Z,12.73
2024-02-22T06:38:56.396Z,12.43
2024-02-22T06:41:23.627Z,12.52
2024-02-22T06:43:50.449Z,13.35
2024-02-22T06:46:18.866Z,14.02
2024-02-22T06:48:46.772Z,14.98
2024-02-22T06:51:14.136Z,14.40
2024-02-22T06:53:41.167Z,14.55
2024-02-22T06:56:08.818Z,14.18
2024-02-22T06:58:36.262Z,15.60
2024-02-22T07:01:03.659Z,15.38
2024-02-22T07:03:30.562Z,15.55
2024-02-22T07:05:57.699Z,14.02
2024-02-22T07:08:24.968Z,14.82
2024-02-22T07:10:52.266Z,14.68
2024-02-22T07:13:19.201Z,14.25
2024-02-22T07:15:46.297Z,13.82
2024-02-22T07:18:13.260Z,13.82
2024-02-22T07:20:40.480Z,13.60
2024-02-22T07:23:07.397Z,12.85
2024-02-22T07:25:34.604Z,12.25
2024-02-22T07:28:01.481Z,11.90
2024-02-22T07:30:28.862Z,11.98
2024-02-22T07:32:55.930Z,11.55
2024-02-22T07:35:24.305Z,12.15
2024-02-22T07:37:51.226Z,11.95
2024-02-22T07:40:18.408Z,12.95
2024-02-22T07:42:45.273Z,11.80
2024-02-22T07:45:12.530Z,12.05
2024-02-22T07:47:40.553Z,12.70
2024-02-22T07:50:12.276Z,12.38
2024-02-22T07:52:40.906Z,11.07
2024-02-22T07:55:08.916Z,12.88
2024-02-22T07:57:36.706Z,12.93
2024-02-22T08:00:04.837Z,12.25
2024-02-22T08:02:31.780Z,12.18
2024-02-22T08:04:59.575Z,12.68
2024-02-22T08:07:26.555Z,10.73
2024-02-22T08:09:53.706Z,12.15
2024-02-22T08:12:20.687Z,11.65
2024-02-22T08:14:48.833Z,11.80
2024-02-22T08:17:18.972Z,10.98
2024-02-22T08:19:48.931Z,10.57
2024-02-22T08:22:17.066Z,10.20
2024-02-22T08:24:44.221Z,9.93
2024-02-22T08:27:11.611Z,9.57
2024-02-22T08:29:38.728Z,10.13
2024-02-22T08:32:07.016Z,9.25
2024-02-22T08:34:34.285Z,8.60
2024-02-22T08:37:01.295Z,9.55
2024-02-22T08:39:28.459Z,8.50
2024-02-22T08:41:55.240Z,8.77
2024-02-22T08:44:22.763Z,8.70
2024-02-22T08:46:49.676Z,8.48
2024-02-22T08:49:17.474Z,9.63
2024-02-22T08:51:44.329Z,8.82
2024-02-22T08:54:11.501Z,10.38
2024-02-22T08:56:38.369Z,8.93
2024-02-22T08:59:05.852Z,8.70
2024-02-22T09:01:35.492Z,9.18
2024-02-22T09:04:02.860Z,9.50
2024-02-22T09:06:29.823Z,9.27
2024-02-22T09:08:57.564Z,9.00
2024-02-22T09:11:25.431Z,8.98
2024-02-22T09:13:52.712Z,9.55
2024-02-22T09:16:19.758Z,9.00
2024-02-22T09:18:46.946Z,8.93
2024-02-22T09:21:15.471Z,8.13
2024-02-22T09:23:45.941Z,7.57
2024-02-22T09:26:14.740Z,8.13
2024-02-22T09:28:42.364Z,8.32
2024-02-22T09:31:09.190Z,9.50
2024-02-22T09:33:36.354Z,8.70
2024-02-22T09:36:03.746Z,9.43
2024-02-22T09:38:35.296Z,8.18
2024-02-22T09:41:02.816Z,8.40
2024-02-22T09:43:30.285Z,10.13
2024-02-22T09:45:57.103Z,9.68
2024-02-22T09:48:24.448Z,7.85
2024-02-22T09:50:51.429Z,7.80
2024-02-22T09:53:19.808Z,7.65
2024-02-22T09:55:46.897Z,7.65
2024-02-22T09:58:16.111Z,7.93
2024-02-22T10:00:43.080Z,7.68
2024-02-22T10:03:11.528Z,6.90
2024-02-22T10:05:39.134Z,7.50
2024-02-22T10:08:13.398Z,7.38
2024-02-22T10:10:41.741Z,7.47
2024-02-22T10:13:18.820Z,7.15
2024-02-22T10:15:46.732Z,6.85
2024-02-22T10:18:13.925Z,7.07
2024-02-22T10:20:44.052Z,6.68
2024-02-22T10:23:12.852Z,7.70
2024-02-22T10:25:41.016Z,9.40
2024-02-22T10:28:09.526Z,9.95
2024-02-22T10:30:36.543Z,8.20
2024-02-22T10:33:04.093Z,8.18
2024-02-22T10:35:31.685Z,8.02
2024-02-22T10:37:58.969Z,8.52
2024-02-22T10:40:27.453Z,8.40
2024-02-22T10:42:54.720Z,8.55
2024-02-22T10:45:22.752Z,9.57
2024-02-22T10:47:52.914Z,9.80
2024-02-22T10:50:23.265Z,9.02
2024-02-22T10:52:53.241Z,9.23
2024-02-22T10:55:20.123Z,9.05
2024-02-22T10:57:49.204Z,9.02
2024-02-22T11:00:16.607Z,9.18
2024-02-22T11:02:47.162Z,9.95
2024-02-22T11:05:14.309Z,9.95
2024-02-22T11:07:49.535Z,10.13
2024-02-22T11:10:16.380Z,10.43
2024-02-22T11:12:46.757Z,10.40
2024-02-22T11:15:15.468Z,9.32
2024-02-22T11:17:56.891Z,8.45
2024-02-22T11:20:36.279Z,9.13
2024-02-22T11:23:14.049Z,9.68
2024-02-22T11:25:41.198Z,10.85
2024-02-22T11:28:09.534Z,10.90
2024-02-22T11:30:36.326Z,10.80
2024-02-22T11:33:03.821Z,10.48
2024-02-22T11:35:30.934Z,9.23
2024-02-22T11:37:59.326Z,8.93
2024-02-22T11:40:27.631Z,10.38
2024-02-22T11:42:56.371Z,8.48
2024-02-22T11:45:23.263Z,9.90
2024-02-22T11:47:50.461Z,9.68
2024-02-22T11:50:17.661Z,9.80
2024-02-22T11:52:51.281Z,8.30
2024-02-22T11:55:18.320Z,7.78
2024-02-22T11:57:45.599Z,7.97
2024-02-22T12:00:12.640Z,8.73
2024-02-22T12:02:39.950Z,8.27
2024-02-22T12:05:08.177Z,9.55
2024-02-22T12:07:35.360Z,8.00
2024-02-22T12:10:02.225Z,8.27
2024-02-22T12:12:29.470Z,7.07
2024-02-22T12:15:00.018Z,9.07
2024-02-22T12:17:27.663Z,8.05
2024-02-22T12:19:55.695Z,8.88
2024-02-22T12:22:23.450Z,9.70
2024-02-22T12:24:50.634Z,8.50
2024-02-22T12:27:20.818Z,8.82
2024-02-22T12:29:51.380Z,8.25
2024-02-22T12:32:20.242Z,7.60
2024-02-22T12:34:47.178Z,7.65
2024-02-22T12:37:15.433Z,7.53
2024-02-22T12:39:42.406Z,7.82
2024-02-22T12:42:09.788Z,7.95
2024-02-22T12:44:36.658Z,8.40
2024-02-22T12:47:05.436Z,8.55
2024-02-22T12:49:34.249Z,8.68
2024-02-22T12:52:01.810Z,9.55
2024-02-22T12:54:28.818Z,8.88
2024-02-22T12:56:56.056Z,7.82
2024-02-22T12:59:23.154Z,8.75
2024-02-22T13:01:51.035Z,7.07
2024-02-22T13:04:18.144Z,8.13
2024-02-22T13:06:45.332Z,9.23
2024-02-22T13:09:12.705Z,8.18
2024-02-22T13:11:40.366Z,8.75
2024-02-22T13:14:07.627Z,8.98
2024-02-22T13:16:35.972Z,9.10
2024-02-22T13:19:03.174Z,8.32
2024-02-22T13:21:30.363Z,8.30
2024-02-22T13:23:57.265Z,7.47
2024-02-22T13:26:24.694Z,8.90
2024-02-22T13:28:52.046Z,8.77
2024-02-22T13:31:20.859Z,8.27
2024-02-22T13:33:49.378Z,9.55
2024-02-22T13:36:17.350Z,10.95
2024-02-22T13:38:44.338Z,12.70
2024-02-22T13:41:13.413Z,13.35
2024-02-22T13:43:41.840Z,11.13
2024-02-22T13:46:09.081Z,13.32
2024-02-22T13:48:37.839Z,13.38
2024-02-22T13:51:05.872Z,14.55
2024-02-22T13:53:32.954Z,13.80
2024-02-22T13:56:00.459Z,15.55
2024-02-22T13:58:27.446Z,14.02
2024-02-22T14:00:54.680Z,13.38
2024-02-22T14:03:21.659Z,14.05
2024-02-22T14:05:52.761Z,12.27
2024-02-22T14:08:22.007Z,13.70
2024-02-22T14:10:49.775Z,14.20
2024-02-22T14:13:18.099Z,13.55
2024-02-22T14:15:47.499Z,13.85
2024-02-22T14:18:14.377Z,14.35
2024-02-22T14:20:43.564Z,13.75
2024-02-22T14:23:13.857Z,15.30
2024-02-22T14:25:44.663Z,16.90
2024-02-22T14:28:11.552Z,15.38
2024-02-22T14:30:38.732Z,16.17
2024-02-22T14:33:05.993Z,20.52
2024-02-22T14:35:33.237Z,16.13
2024-02-22T14:38:00.313Z,24.15
2024-02-22T14:40:27.518Z,14.70
2024-02-22T14:42:54.435Z,15.10
2024-02-22T14:45:21.900Z,15.57
2024-02-22T14:47:48.784Z,14.82
2024-02-22T14:50:17.914Z,14.13
2024-02-22T14:52:44.823Z,14.38
2024-02-22T14:55:12.461Z,13.43
2024-02-22T14:57:39.360Z,14.05
2024-02-22T15:00:10.053Z,12.88
2024-02-22T15:02:37.511Z,13.57
2024-02-22T15:05:05.486Z,11.70
2024-02-22T15:07:32.485Z,12.15
2024-02-22T15:09:59.629Z,11.93
2024-02-22T15:12:26.465Z,11.85
2024-02-22T15:14:53.937Z,11.57
2024-02-22T15:17:24.000Z,11.63
2024-02-22T15:19:51.648Z,10.93
2024-02-22T15:22:18.906Z,10.38
2024-02-22T15:24:46.384Z,10.30
2024-02-22T15:27:13.294Z,9.27
2024-02-22T15:29:40.560Z,9.95
2024-02-22T15:32:07.815Z,9.32
2024-02-22T15:34:35.684Z,9.63
2024-02-22T15:37:03.224Z,9.77
2024-02-22T15:39:30.415Z,9.65
2024-02-22T15:41:57.261Z,10.30
2024-02-22T15:44:25.014Z,10.82
2024-02-22T15:46:52.054Z,12.85
2024-02-22T15:49:19.440Z,13.85
2024-02-22T15:51:46.377Z,14.55
2024-02-22T15:54:14.144Z,14.82
2024-02-22T15:56:41.227Z,13.82
2024-02-22T15:59:08.677Z,13.77
2024-02-22T16:01:35.611Z,14.27
2024-02-22T16:04:04.471Z,14.65
2024-02-22T16:06:32.632Z,13.30
2024-02-22T16:09:00.373Z,14.88
2024-02-22T16:11:27.791Z,14.70
2024-02-22T16:13:59.183Z,15.45
2024-02-22T16:16:26.396Z,13.73
2024-02-22T16:18:59.491Z,14.63
2024-02-22T16:21:26.628Z,15.40
2024-02-22T16:23:55.909Z,13.80
2024-02-22T16:26:23.322Z,15.15
2024-02-22T16:28:50.592Z,16.88
2024-02-22T16:31:17.619Z,17.95
2024-02-22T16:33:46.179Z,19.55
2024-02-22T16:36:13.842Z,21.42
2024-02-22T16:38:49.372Z,21.88
2024-02-22T16:41:28.056Z,20.42
2024-02-22T16:43:55.656Z,21.85
2024-02-22T16:46:22.741Z,22.10
2024-02-22T16:48:50.096Z,21.98
2024-02-22T16:51:19.764Z,22.63
2024-02-22T16:53:49.746Z,21.38
2024-02-22T16:56:17.366Z,22.73
2024-02-22T16:58:44.763Z,21.27
2024-02-22T17:01:11.846Z,23.27
2024-02-22T17:03:39.270Z,28.02
2024-02-22T17:06:06.394Z,27.17
2024-02-22T17:08:33.678Z,28.05
2024-02-22T17:11:00.933Z,29.50
2024-02-22T17:13:31.257Z,29.55
2024-02-22T17:15:59.391Z,30.52
2024-02-22T17:18:28.236Z,30.42
2024-02-22T17:20:56.499Z,28.45
2024-02-22T17:23:24.269Z,29.58
2024-02-22T17:25:51.513Z,30.15
2024-02-22T17:28:20.057Z,29.90
2024-02-22T17:30:47.043Z,27.33
2024-02-22T17:33:15.028Z,25.88
2024-02-22T17:35:42.014Z,24.95
2024-02-22T17:38:11.246Z,23.50
2024-02-22T17:40:38.364Z,20.70
2024-02-22T17:43:06.038Z,20.10
2024-02-22T17:45:32.939Z,19.95
2024-02-22T17:48:02.190Z,18.25
2024-02-22T17:50:29.382Z,16.23
2024-02-22T17:52:56.556Z,16.27
2024-02-22T17:55:24.541Z,15.88
2024-02-22T17:57:52.046Z,14.73
2024-02-22T18:00:25.390Z,13.18
2024-02-22T18:03:03.067Z,12.13
2024-02-22T18:05:32.401Z,11.82
2024-02-22T18:08:03.665Z,12.43
2024-02-22T18:10:31.062Z,12.13
2024-02-22T18:12:58.326Z,11.10
2024-02-22T18:15:31.251Z,10.10
2024-02-22T18:17:59.526Z,12.10
2024-02-22T18:20:32.138Z,10.50
2024-02-22T18:22:59.749Z,9.80
2024-02-22T18:25:27.239Z,9.95
2024-02-22T18:27:55.784Z,8.68
2024-02-22T18:30:23.773Z,9.48
2024-02-22T18:32:51.813Z,8.85
2024-02-22T18:35:18.819Z,8.23
2024-02-22T18:37:46.270Z,8.13
2024-02-22T18:40:13.407Z,8.02
2024-02-22T18:42:41.356Z,7.30
2024-02-22T18:45:08.615Z,8.20
2024-02-22T18:47:35.938Z,7.20
2024-02-22T18:50:04.996Z,7.00
2024-02-22T18:52:34.525Z,7.15
2024-02-22T18:55:02.180Z,6.80
2024-02-22T18:57:29.532Z,7.90
2024-02-22T18:59:56.397Z,6.15
2024-02-22T19:02:25.163Z,5.82
2024-02-22T19:04:52.034Z,6.88
2024-02-22T19:07:21.762Z,6.65
2024-02-22T19:09:49.348Z,6.22
2024-02-22T19:12:16.630Z,7.10
2024-02-22T19:14:43.530Z,6.10
2024-02-22T19:17:12.199Z,6.53
2024-02-22T19:19:40.145Z,6.40
2024-02-22T19:22:09.198Z,5.93
2024-02-22T19:24:36.138Z,6.93
2024-02-22T19:27:04.801Z,6.32
2024-02-22T19:29:32.010Z,6.80
2024-02-22T19:32:00.202Z,6.55
2024-02-22T19:34:28.096Z,7.30
2024-02-22T19:36:55.314Z,7.10
2024-02-22T19:39:22.698Z,6.75
2024-02-22T19:41:50.867Z,6.00
2024-02-22T19:44:19.927Z,6.68
2024-02-22T19:46:47.267Z,7.72
2024-02-22T19:49:14.329Z,7.95
2024-02-22T19:51:42.685Z,7.22
2024-02-22T19:54:21.003Z,7.03
2024-02-22T19:56:49.459Z,6.90
2024-02-22T19:59:16.300Z,7.30
2024-02-22T20:01:44.690Z,6.60
2024-02-22T20:04:11.905Z,7.50
2024-02-22T20:06:43.630Z,7.00
2024-02-22T20:09:10.942Z,6.55
2024-02-22T20:11:41.284Z,8.00
2024-02-22T20:14:09.096Z,6.90
2024-02-22T20:16:36.978Z,6.30
2024-02-22T20:19:03.959Z,6.32
2024-02-22T20:21:33.326Z,6.75
2024-02-22T20:24:02.908Z,5.60
2024-02-22T20:26:30.678Z,5.90
2024-02-22T20:28:57.626Z,6.13
2024-02-22T20:31:24.827Z,6.10
2024-02-22T20:33:52.447Z,5.78
2024-02-22T20:36:20.736Z,5.55
2024-02-22T20:38:47.777Z,5.57
2024-02-22T20:41:16.868Z,5.75
2024-02-22T20:43:44.010Z,5.35
2024-02-22T20:46:11.316Z,6.32
2024-02-22T20:48:42.258Z,6.38
2024-02-22T20:51:09.473Z,6.03
2024-02-22T20:53:37.973Z,5.65
2024-02-22T20:56:05.604Z,6.43
2024-02-22T20:58:32.661Z,6.38
2024-02-22T21:01:00.417Z,5.72
2024-02-22T21:03:29.017Z,5.88
2024-02-22T21:06:00.186Z,5.78
2024-02-22T21:08:27.954Z,5.10
2024-02-22T21:10:58.947Z,5.15
2024-02-22T21:13:25.924Z,5.18
2024-02-22T21:15:53.627Z,5.95
2024-02-22T21:18:20.724Z,5.88
2024-02-22T21:20:48.462Z,5.43
2024-02-22T21:23:15.377Z,5.25
2024-02-22T21:25:44.318Z,5.95
2024-02-22T21:28:11.945Z,4.88
2024-02-22T21:30:39.195Z,5.30
2024-02-22T21:33:06.293Z,5.60
2024-02-22T21:35:33.600Z,5.15
2024-02-22T21:38:05.805Z,4.95
2024-02-22T21:40:44.496Z,5.90
2024-02-22T21:43:11.382Z,5.50
2024-02-22T21:45:38.694Z,5.80
2024-02-22T21:48:10.728Z,5.13
2024-02-22T21:50:38.888Z,5.53
2024-02-22T21:53:08.224Z,5.70
2024-02-22T21:55:35.658Z,6.05
2024-02-22T21:58:02.500Z,5.68
2024-02-22T22:00:29.623Z,6.13
2024-02-22T22:02:56.507Z,5.47
2024-02-22T22:05:23.914Z,6.20
2024-02-22T22:07:51.448Z,5.57
2024-02-22T22:10:18.675Z,6.72
2024-02-22T22:12:45.532Z,6.55
2024-02-22T22:15:12.670Z,6.32
2024-02-22T22:17:42.415Z,6.25
2024-02-22T22:20:11.203Z,6.45
2024-02-22T22:22:38.017Z,6.63
2024-02-22T22:25:06.052Z,8.18
2024-02-22T22:27:32.906Z,8.15
2024-02-22T22:30:00.021Z,8.27
2024-02-22T22:32:27.044Z,7.78
2024-02-22T22:34:54.518Z,9.55
2024-02-22T22:37:22.892Z,9.35
2024-02-22T22:39:50.123Z,9.98
2024-02-22T22:42:16.970Z,10.10
2024-02-22T22:44:44.206Z,10.10
2024-02-22T22:47:11.262Z,10.25
2024-02-22T22:49:39.012Z,11.57
2024-02-22T22:52:06.116Z,10.68
2024-02-22T22:54:33.743Z,10.52
2024-02-22T22:57:00.688Z,11.60
2024-02-22T22:59:28.045Z,10.18
2024-02-22T23:01:58.565Z,11.77
2024-02-22T23:04:26.161Z,11.02
2024-02-22T23:06:53.406Z,10.38
2024-02-22T23:09:21.513Z,10.18
2024-02-22T23:11:48.434Z,10.32
2024-02-22T23:14:15.705Z,10.38
2024-02-22T23:16:42.785Z,9.73
2024-02-22T23:19:10.301Z,9.30
2024-02-22T23:21:37.681Z,10.43
2024-02-22T23:24:06.950Z,10.35
2024-02-22T23:26:33.978Z,10.93
2024-02-22T23:29:01.372Z,10.30
2024-02-22T23:31:31.074Z,9.20
2024-02-22T23:33:58.432Z,9.65
2024-02-22T23:36:25.481Z,10.13
2024-02-22T23:38:52.578Z,9.05
2024-02-22T23:41:25.501Z,9.57
2024-02-22T23:44:01.115Z,10.43
2024-02-22T23:46:28.570Z,8.52
2024-02-22T23:48:57.051Z,9.65
2024-02-22T23:51:24.117Z,10.07
2024-02-22T23:53:51.356Z,8.25
2024-02-22T23:56:18.252Z,8.13
2024-02-22T23:58:45.725Z,8.35
